West Yellowstone, Montana
Current Conditions -  °F | °C
As of 2:56 PM on Monday 26 Jan 2015 (Local Time) from KDIJ Reporting Station
Clear Clear  
Wind Chill: 37°   Ceiling: Unl
Heat Index: 37°   Visibility: 10mi
Dew Point: 30°   Wind: 3mph
Humidity: 76%   Direction: 310°NW
Pressure: 30.31"   Gusts: NA
Location:  44.66°N, 111.1°W
Report Text: KDIJ 262156Z AUTO 31003KT 10SM CLR 03/M01 A3031 RMK AO2 T00271011 SLP273
Loading
Personal Weather Stations






























Interactive Weather Map New forecast layout! Learn more

10-Day Weather Forecast

Advertisements
Track Severe Weather on mobile